Time;durP1;ratioP1;P1;durP2;ratioP2;P2;SDS_P1;SDS_P2;PMS_P1;PMS_P2;Temp;Humidity;BMP_temperature;BMP_pressure;BME280_temperature;BME280_humidity;BME280_pressure;Samples;Min_cycle;Max_cycle;Signal;HPM_P1;HPM_P2
2023/06/10 00:02:00;;;;;;;10.47;9.33;;;21.70;99.90;;;;;;5078240;28;20440;-83
2023/06/10 00:08:43;;;;;;;;;;;;;;;;;;;;;
2023/06/10 00:11:22;;;;;;;14.00;9.90;;;21.60;99.90;;;;;;5086365;28;20443;-83
2023/06/10 00:14:21;;;;;;;13.37;9.83;;;21.60;99.90;;;;;;5068599;28;20439;-85
2023/06/10 00:17:38;;;;;;;;;;;;;;;;;;;;;
2023/06/10 00:26:39;;;;;;;17.07;10.57;;;21.40;99.90;;;;;;5063769;28;20503;-81
2023/06/10 00:30:04;;;;;;;;;;;;;;;;;;;;;
2023/06/10 00:39:58;;;;;;;;;;;;;;;;;;;;;
2023/06/10 00:50:02;;;;;;;14.10;11.30;;;21.20;99.90;;;;;;5028474;28;20459;-79
2023/06/10 00:53:12;;;;;;;12.03;9.63;;;21.10;99.90;;;;;;5047029;28;20480;-83
2023/06/10 00:56:10;;;;;;;12.33;10.00;;;21.10;99.90;;;;;;5030191;28;20447;-82
2023/06/10 00:59:00;;;;;;;19.73;12.20;;;21.10;99.90;;;;;;5026475;28;20482;-83
2023/06/10 01:13:28;;;;;;;16.33;11.83;;;20.90;99.90;;;;;;4943890;29;20500;-82
2023/06/10 01:20:11;;;;;;;18.87;12.40;;;20.70;99.90;;;;;;4936715;29;20455;-81
2023/06/10 01:26:25;;;;;;;;;;;;;;;;;;;;;
2023/06/10 01:29:43;;;;;;;;;;;;;;;;;;;;;
2023/06/10 01:32:40;;;;;;;37.63;12.07;;;20.60;99.90;;;;;;5040462;28;20548;-82
2023/06/10 01:42:58;;;;;;;13.50;12.10;;;20.20;99.90;;;;;;5084556;28;21034;-82
2023/06/10 01:53:01;;;;;;;13.90;12.60;;;20.00;99.90;;;;;;4972757;28;20539;-82
2023/06/10 01:59:46;;;;;;;;;;;;;;;;;;;;;
2023/06/10 02:03:12;;;;;;;;;;;;;;;;;;;;;
2023/06/10 02:21:10;;;;;;;;;;;;;;;;;;;;;
2023/06/10 02:24:18;;;;;;;;;;;;;;;;;;;;;
2023/06/10 02:31:29;;;;;;;14.60;13.27;;;19.60;99.90;;;;;;4877843;29;20518;-82
2023/06/10 02:41:51;;;;;;;;;;;;;;;;;;;;;
2023/06/10 02:51:58;;;;;;;;;;;;;;;;;;;;;
2023/06/10 02:54:59;;;;;;;17.00;14.90;;;19.40;99.90;;;;;;5005873;28;20914;-82
2023/06/10 02:58:48;;;;;;;;;;;;;;;;;;;;;
2023/06/10 03:09:19;;;;;;;17.37;15.60;;;19.20;99.90;;;;;;4889592;29;20484;-81
2023/06/10 03:16:07;;;;;;;;;;;;;;;;;;;;;
2023/06/10 03:48:37;;;;;;;;;;;;;;;;;;;;;
2023/06/10 04:54:26;;;;;;;15.53;14.03;;;20.30;99.90;;;;;;4910805;29;20481;-81
2023/06/10 05:08:24;;;;;;;;;;;;;;;;;;;;;
2023/06/10 05:15:47;;;;;;;;;;;;;;;;;;;;;
2023/06/10 05:22:53;;;;;;;;;;;;;;;;;;;;;
2023/06/10 05:30:24;;;;;;;;;;;;;;;;;;;;;
2023/06/10 05:37:41;;;;;;;;;;;;;;;;;;;;;
2023/06/10 07:13:41;;;;;;;10.50;6.10;;;52.40;1.00;;;;;;4263648;26;20223;-83
2023/06/10 07:37:37;;;;;;;10.40;6.27;;;50.20;1.00;;;;;;3100062;22;20478;-84
2023/06/10 07:47:32;;;;;;;;;;;;;;;;;;;;;
2023/06/10 07:58:21;;;;;;;8.10;5.87;;;51.90;1.00;;;;;;5003289;28;20209;-83
2023/06/10 08:01:48;;;;;;;5.60;5.10;;;52.00;1.00;;;;;;5014164;28;20193;-83
2023/06/10 08:08:41;;;;;;;;;;;;;;;;;;;;;
2023/06/10 08:15:55;;;;;;;;;;;;;;;;;;;;;
2023/06/10 08:19:09;;;;;;;;;;;;;;;;;;;;;
2023/06/10 08:22:06;;;;;;;11.80;5.67;;;50.40;1.00;;;;;;5041907;28;20464;-82
2023/06/10 08:28:00;;;;;;;11.37;5.90;;;50.30;1.00;;;;;;4985202;28;20498;-83
2023/06/10 08:30:48;;;;;;;14.23;6.43;;;50.80;1.00;;;;;;5027761;28;20444;-83
2023/06/10 08:33:20;;;;;;;7.00;5.63;;;50.50;1.00;;;;;;5025465;28;20440;-83
2023/06/10 08:36:24;;;;;;;;;;;;;;;;;;;;;
2023/06/10 08:42:25;;;;;;;5.93;5.30;;;52.10;1.00;;;;;;5025970;28;20491;-85
2023/06/10 08:44:55;;;;;;;7.37;5.03;;;52.20;1.00;;;;;;5022694;28;20187;-83
2023/06/10 08:47:23;;;;;;;12.40;4.87;;;52.20;1.00;;;;;;5025247;28;20198;-83
2023/06/10 08:49:48;;;;;;;9.13;5.40;;;51.70;1.00;;;;;;5024842;28;20460;-83
2023/06/10 08:52:16;;;;;;;8.53;5.83;;;51.60;1.00;;;;;;5007169;28;20445;-84
2023/06/10 08:54:46;;;;;;;9.13;5.90;;;51.80;1.00;;;;;;5005529;28;20197;-84
2023/06/10 08:57:12;;;;;;;8.33;6.20;;;52.00;1.00;;;;;;5025185;28;20463;-84
2023/06/10 08:59:38;;;;;;;8.63;5.60;;;52.00;1.00;;;;;;5016063;28;20445;-84
2023/06/10 09:02:04;;;;;;;6.17;5.57;;;52.00;1.00;;;;;;5020433;28;20461;-84
2023/06/10 09:04:30;;;;;;;5.97;5.37;;;51.60;1.00;;;;;;5025933;28;20468;-85
2023/06/10 09:06:57;;;;;;;7.30;5.27;;;51.70;1.00;;;;;;5007845;28;20300;-84
2023/06/10 09:09:23;;;;;;;6.40;5.60;;;51.50;1.00;;;;;;5012903;28;20470;-84
2023/06/10 09:11:48;;;;;;;6.97;5.77;;;50.90;1.00;;;;;;5035123;28;20437;-84
2023/06/10 09:14:16;;;;;;;8.53;5.27;;;50.50;1.00;;;;;;5029711;28;20451;-84
2023/06/10 09:16:42;;;;;;;7.50;5.40;;;50.00;1.00;;;;;;5028820;28;20202;-85
2023/06/10 09:19:08;;;;;;;5.73;5.13;;;49.50;1.00;;;;;;5023003;28;20471;-84
2023/06/10 09:21:35;;;;;;;7.37;5.10;;;49.70;1.00;;;;;;5022237;28;20239;-83
2023/06/10 09:24:01;;;;;;;6.43;5.87;;;50.30;1.00;;;;;;5027408;28;20440;-84
2023/06/10 09:26:29;;;;;;;6.87;5.67;;;50.80;1.00;;;;;;5023074;28;20552;-83
2023/06/10 09:29:13;;;;;;;8.23;5.77;;;51.30;1.00;;;;;;5020810;28;20225;-85
2023/06/10 09:31:40;;;;;;;6.50;5.17;;;51.70;1.00;;;;;;5024629;28;20439;-84
2023/06/10 09:34:16;;;;;;;5.67;5.17;;;51.70;1.00;;;;;;5026203;28;20440;-84
2023/06/10 09:36:42;;;;;;;5.30;4.80;;;52.00;1.00;;;;;;5020187;28;20439;-84
2023/06/10 09:39:18;;;;;;;5.83;5.23;;;51.90;1.00;;;;;;4996489;28;22323;-83
2023/06/10 09:41:45;;;;;;;6.57;5.83;;;51.70;1.00;;;;;;5007606;28;20480;-85
2023/06/10 09:44:21;;;;;;;6.10;5.60;;;51.70;1.00;;;;;;5006371;28;20542;-84
2023/06/10 09:46:50;;;;;;;5.33;4.90;;;51.90;1.00;;;;;;5030818;28;20428;-83
2023/06/10 09:49:19;;;;;;;5.47;5.00;;;51.80;1.00;;;;;;5012907;28;20452;-84
2023/06/10 09:51:54;;;;;;;6.30;5.27;;;51.50;1.00;;;;;;5016433;28;20435;-84
2023/06/10 09:54:21;;;;;;;6.90;5.23;;;51.20;1.00;;;;;;5004995;28;20443;-84
2023/06/10 09:56:48;;;;;;;6.13;5.47;;;51.30;1.00;;;;;;5011765;28;21028;-84
2023/06/10 09:59:14;;;;;;;5.40;5.00;;;51.40;1.00;;;;;;5026920;28;20801;-83
2023/06/10 10:01:40;;;;;;;5.90;5.40;;;51.40;1.00;;;;;;5023620;28;20506;-84
2023/06/10 10:04:05;;;;;;;5.83;5.00;;;51.30;1.00;;;;;;5011306;28;20543;-84
2023/06/10 10:06:31;;;;;;;7.27;5.67;;;51.10;1.00;;;;;;5033782;28;20197;-84
2023/06/10 10:08:57;;;;;;;6.23;5.50;;;50.80;1.00;;;;;;5023431;28;20198;-83
2023/06/10 10:11:23;;;;;;;7.30;5.77;;;50.10;1.00;;;;;;5019651;28;20506;-83
2023/06/10 10:13:53;;;;;;;6.87;5.87;;;49.50;1.00;;;;;;5006635;28;20189;-83
2023/06/10 10:16:30;;;;;;;6.93;5.90;;;49.00;1.00;;;;;;5004622;28;20444;-83
2023/06/10 10:18:58;;;;;;;5.90;5.40;;;48.70;1.00;;;;;;5011112;28;21134;-83
2023/06/10 10:21:28;;;;;;;6.07;5.57;;;48.70;1.00;;;;;;5009904;28;20990;-82
2023/06/10 10:24:04;;;;;;;8.97;6.13;;;48.60;1.00;;;;;;5006242;28;20499;-83
2023/06/10 10:26:32;;;;;;;10.23;6.33;;;48.30;1.00;;;;;;5025960;28;20440;-83
2023/06/10 10:29:10;;;;;;;6.57;6.07;;;48.30;1.00;;;;;;5008029;28;20448;-83
2023/06/10 10:31:38;;;;;;;10.30;6.43;;;48.40;1.00;;;;;;5030609;28;20555;-83
2023/06/10 10:34:08;;;;;;;6.90;5.43;;;48.10;1.00;;;;;;5030236;28;20457;-83
2023/06/10 10:36:35;;;;;;;7.20;5.93;;;47.90;1.00;;;;;;5012815;28;20460;-83
2023/06/10 10:39:16;;;;;;;6.67;6.07;;;47.90;1.00;;;;;;5024490;28;20454;-83
2023/06/10 10:41:42;;;;;;;6.40;5.90;;;47.70;1.00;;;;;;4990334;28;20484;-84
2023/06/10 10:44:09;;;;;;;5.83;5.33;;;47.50;1.00;;;;;;5034403;28;20476;-84
2023/06/10 10:46:48;;;;;;;6.70;6.10;;;47.60;1.00;;;;;;5033281;28;20459;-84
2023/06/10 10:49:15;;;;;;;6.70;5.90;;;47.30;1.00;;;;;;5031409;28;20495;-84
2023/06/10 10:51:57;;;;;;;6.97;5.73;;;47.30;1.00;;;;;;5001703;28;20458;-85
2023/06/10 10:54:37;;;;;;;9.93;6.03;;;47.60;1.00;;;;;;5022808;28;20428;-83
2023/06/10 10:57:09;;;;;;;6.07;5.57;;;48.00;1.00;;;;;;5007010;28;20441;-84
2023/06/10 10:59:55;;;;;;;7.03;6.40;;;47.80;1.00;;;;;;5009472;28;20446;-84
2023/06/10 11:02:34;;;;;;;8.13;5.93;;;47.70;1.00;;;;;;5013146;28;20477;-85
2023/06/10 11:05:00;;;;;;;6.07;5.47;;;47.90;1.00;;;;;;5006271;28;20441;-84
2023/06/10 11:07:26;;;;;;;6.03;5.50;;;48.00;1.00;;;;;;5020848;28;21099;-83
2023/06/10 11:10:05;;;;;;;6.97;6.20;;;48.10;1.00;;;;;;5021447;28;20454;-84
2023/06/10 11:12:46;;;;;;;8.50;6.03;;;47.80;1.00;;;;;;5032354;28;20185;-84
2023/06/10 11:15:28;;;;;;;5.87;5.37;;;48.20;1.00;;;;;;5014368;28;20440;-84
2023/06/10 11:18:14;;;;;;;5.70;5.30;;;48.20;1.00;;;;;;5029830;28;20472;-85
2023/06/10 11:20:49;;;;;;;6.53;5.87;;;48.00;1.00;;;;;;5018165;28;20460;-84
2023/06/10 11:23:27;;;;;;;5.90;5.40;;;47.90;1.00;;;;;;5028194;28;20528;-85
2023/06/10 11:26:12;;;;;;;6.80;6.20;;;47.80;1.00;;;;;;5034671;28;20471;-84
2023/06/10 11:28:41;;;;;;;7.07;6.30;;;47.10;1.00;;;;;;5036881;28;20449;-85
2023/06/10 11:31:09;;;;;;;6.23;5.57;;;46.40;1.00;;;;;;5024947;28;20445;-85
2023/06/10 11:33:39;;;;;;;6.83;6.07;;;46.40;1.00;;;;;;5031333;28;20934;-85
2023/06/10 11:36:07;;;;;;;6.57;5.80;;;46.20;1.00;;;;;;5030551;28;20429;-85
2023/06/10 11:38:33;;;;;;;7.00;6.30;;;46.10;1.00;;;;;;5040341;28;20482;-85
2023/06/10 11:40:59;;;;;;;14.30;6.70;;;45.90;1.00;;;;;;5034740;28;20495;-86
2023/06/10 11:43:25;;;;;;;5.67;5.20;;;45.60;1.00;;;;;;5003920;28;20209;-85
2023/06/10 11:45:55;;;;;;;11.57;6.10;;;45.40;1.00;;;;;;5027200;28;20449;-85
2023/06/10 11:48:20;;;;;;;6.13;5.63;;;45.70;1.00;;;;;;5005941;28;20470;-85
2023/06/10 11:50:46;;;;;;;6.40;5.80;;;45.60;1.00;;;;;;5032252;28;20465;-86
2023/06/10 11:53:12;;;;;;;7.57;6.87;;;44.80;1.00;;;;;;5032464;28;20234;-85
2023/06/10 11:55:48;;;;;;;10.90;6.70;;;44.50;1.00;;;;;;5041076;28;20190;-83
2023/06/10 11:58:19;;;;;;;7.07;6.40;;;44.30;1.00;;;;;;5030406;28;20206;-85
2023/06/10 12:00:46;;;;;;;6.60;6.00;;;44.20;1.00;;;;;;5041912;28;20497;-84
2023/06/10 12:03:12;;;;;;;7.90;5.70;;;44.40;1.00;;;;;;5023136;28;20477;-84
2023/06/10 12:05:38;;;;;;;7.17;6.37;;;43.90;1.00;;;;;;5039007;28;20476;-84
2023/06/10 12:08:11;;;;;;;7.23;6.60;;;43.10;1.00;;;;;;5038249;28;20198;-84
2023/06/10 12:10:43;;;;;;;7.90;7.20;;;42.00;1.00;;;;;;5043114;28;20190;-83
2023/06/10 12:13:09;;;;;;;7.40;6.80;;;40.80;1.00;;;;;;5028304;28;20445;-83
2023/06/10 12:15:35;;;;;;;7.53;6.73;;;39.80;1.00;;;;;;5042952;28;20428;-82
2023/06/10 12:18:02;;;;;;;8.33;6.67;;;39.10;1.00;;;;;;5042641;28;20437;-82
2023/06/10 12:20:29;;;;;;;8.63;7.07;;;38.50;1.00;;;;;;5028786;28;20191;-83
2023/06/10 12:22:55;;;;;;;7.10;6.50;;;38.10;1.00;;;;;;5026961;28;20834;-82
2023/06/10 12:25:28;;;;;;;7.70;6.90;;;37.90;1.00;;;;;;5048567;28;20904;-83
2023/06/10 12:27:56;;;;;;;7.90;7.17;;;37.80;1.00;;;;;;5048619;28;20508;-82
2023/06/10 12:30:24;;;;;;;7.20;6.50;;;37.80;1.00;;;;;;5015676;28;20442;-81
2023/06/10 12:32:52;;;;;;;7.63;7.03;;;37.60;1.00;;;;;;5031810;28;20555;-84
2023/06/10 12:35:24;;;;;;;7.50;6.80;;;37.60;1.00;;;;;;5042007;28;20428;-83
2023/06/10 12:37:57;;;;;;;7.97;7.37;;;37.50;1.00;;;;;;5049842;28;20428;-84
2023/06/10 12:40:33;;;;;;;7.50;6.80;;;37.50;1.00;;;;;;5041707;28;20452;-83
2023/06/10 12:43:00;;;;;;;7.50;6.80;;;37.60;1.00;;;;;;5037637;28;20564;-83
2023/06/10 12:45:33;;;;;;;7.73;7.03;;;37.60;1.00;;;;;;5032577;28;20421;-83
2023/06/10 12:48:09;;;;;;;9.00;6.70;;;38.00;1.00;;;;;;5011063;28;20545;-83
2023/06/10 12:50:39;;;;;;;7.20;6.60;;;38.00;1.00;;;;;;5013880;28;20420;-83
2023/06/10 12:53:05;;;;;;;7.10;6.27;;;37.90;1.00;;;;;;5028967;28;20491;-85
2023/06/10 12:55:31;;;;;;;8.93;7.07;;;38.50;1.00;;;;;;5031713;28;20444;-84
2023/06/10 12:57:57;;;;;;;7.73;6.93;;;39.10;1.00;;;;;;5048848;28;20432;-85
2023/06/10 13:00:25;;;;;;;7.50;6.67;;;39.80;1.00;;;;;;5047553;28;20182;-84
2023/06/10 13:02:52;;;;;;;8.03;6.60;;;40.20;1.00;;;;;;5017568;28;20360;-84
2023/06/10 13:05:20;;;;;;;6.90;6.20;;;40.50;1.00;;;;;;5011182;28;20449;-83
2023/06/10 13:07:46;;;;;;;9.77;7.40;;;40.60;1.00;;;;;;5028502;28;20495;-84
2023/06/10 13:10:16;;;;;;;7.50;6.70;;;40.70;1.00;;;;;;5025413;28;20429;-83
2023/06/10 13:12:44;;;;;;;7.20;6.60;;;40.80;1.00;;;;;;5037586;28;20456;-84
2023/06/10 13:15:10;;;;;;;7.50;6.70;;;41.00;1.00;;;;;;5022113;28;20880;-83
2023/06/10 13:17:37;;;;;;;7.43;6.60;;;41.20;1.00;;;;;;5022012;28;20453;-83
2023/06/10 13:20:07;;;;;;;6.97;6.37;;;41.40;1.00;;;;;;5017261;28;20225;-84
2023/06/10 13:22:34;;;;;;;8.70;6.53;;;41.40;1.00;;;;;;5011935;28;20529;-83
2023/06/10 13:25:04;;;;;;;7.07;6.47;;;41.20;1.00;;;;;;5004579;28;20453;-84
2023/06/10 13:27:30;;;;;;;6.80;6.20;;;40.70;1.00;;;;;;5003948;28;20505;-83
2023/06/10 13:29:56;;;;;;;8.33;6.90;;;40.00;1.00;;;;;;5029135;28;20456;-83
2023/06/10 13:32:22;;;;;;;7.30;6.60;;;40.00;1.00;;;;;;5030409;28;20214;-83
2023/06/10 13:34:49;;;;;;;7.90;7.20;;;39.90;1.00;;;;;;5035959;28;20613;-83
2023/06/10 13:37:17;;;;;;;6.77;6.03;;;39.60;1.00;;;;;;5030947;28;20179;-83
2023/06/10 13:39:42;;;;;;;12.80;6.47;;;39.20;1.00;;;;;;5001539;28;20457;-83
2023/06/10 13:42:08;;;;;;;7.63;6.83;;;38.60;1.00;;;;;;5021317;28;20708;-83
2023/06/10 13:44:36;;;;;;;8.73;6.77;;;38.10;1.00;;;;;;5022441;28;20177;-83
2023/06/10 13:47:02;;;;;;;7.17;6.50;;;37.50;1.00;;;;;;5020650;28;20442;-83
2023/06/10 13:49:28;;;;;;;8.10;7.37;;;37.40;1.00;;;;;;5032670;28;20456;-83
2023/06/10 13:51:53;;;;;;;15.00;13.60;;;37.20;1.00;;;;;;5024756;28;20393;-82
2023/06/10 13:54:19;;;;;;;11.50;10.37;;;36.70;1.00;;;;;;5020693;28;20195;-83
2023/06/10 13:56:44;;;;;;;18.37;15.27;;;36.40;1.00;;;;;;4999599;28;20664;-82
2023/06/10 13:59:10;;;;;;;11.40;10.03;;;36.30;1.00;;;;;;5022222;28;20213;-82
2023/06/10 14:01:36;;;;;;;8.57;7.20;;;36.20;1.00;;;;;;5007701;28;20174;-83
2023/06/10 14:04:02;;;;;;;9.10;7.63;;;36.10;1.00;;;;;;5013715;28;20214;-83
2023/06/10 14:06:27;;;;;;;8.27;6.47;;;36.10;1.00;;;;;;5003151;28;20414;-83
2023/06/10 14:08:54;;;;;;;7.83;7.13;;;36.20;1.00;;;;;;5018920;28;20433;-83
2023/06/10 14:11:20;;;;;;;8.03;6.70;;;36.20;1.00;;;;;;5024530;28;20667;-83
2023/06/10 14:13:46;;;;;;;8.67;6.73;;;36.20;1.00;;;;;;5024915;28;20447;-83
2023/06/10 14:16:12;;;;;;;7.20;6.60;;;36.10;1.00;;;;;;5008470;28;20430;-83
2023/06/10 14:18:37;;;;;;;8.30;7.50;;;36.00;1.00;;;;;;5022273;28;20215;-83
2023/06/10 14:21:03;;;;;;;14.30;10.37;;;35.80;1.00;;;;;;5040167;28;20174;-86
2023/06/10 14:23:29;;;;;;;9.03;7.50;;;35.70;1.00;;;;;;5014806;28;20206;-83
2023/06/10 14:25:54;;;;;;;8.37;7.60;;;35.70;1.00;;;;;;5006116;28;20190;-84
2023/06/10 14:28:20;;;;;;;21.80;8.17;;;35.50;1.00;;;;;;5024206;28;20242;-83
2023/06/10 14:30:45;;;;;;;8.10;6.83;;;35.60;1.00;;;;;;5036939;28;20175;-84
2023/06/10 14:33:11;;;;;;;7.33;6.63;;;35.70;1.00;;;;;;5027164;28;20186;-82
2023/06/10 14:35:37;;;;;;;11.10;7.80;;;35.70;1.00;;;;;;5019006;28;20183;-83
2023/06/10 14:38:02;;;;;;;9.43;8.57;;;35.90;1.00;;;;;;5003003;28;20205;-83
2023/06/10 14:40:29;;;;;;;8.00;7.30;;;36.00;1.00;;;;;;5023380;28;20213;-83
2023/06/10 14:42:55;;;;;;;7.17;6.47;;;36.00;1.00;;;;;;5017087;28;20325;-83
2023/06/10 14:45:21;;;;;;;6.93;6.27;;;35.80;1.00;;;;;;5037579;28;20452;-83
2023/06/10 14:47:47;;;;;;;7.70;6.90;;;35.70;1.00;;;;;;5034366;28;20191;-84
2023/06/10 14:50:13;;;;;;;7.07;6.37;;;35.70;1.00;;;;;;5019815;28;20577;-82
2023/06/10 14:52:38;;;;;;;7.13;6.30;;;35.60;1.00;;;;;;5020106;28;20501;-82
2023/06/10 14:55:04;;;;;;;6.90;6.30;;;35.70;1.00;;;;;;5036573;28;20417;-83
2023/06/10 14:57:30;;;;;;;8.00;6.40;;;35.80;1.00;;;;;;5039473;28;20202;-83
2023/06/10 14:59:56;;;;;;;9.20;7.17;;;35.80;1.00;;;;;;5022418;28;20457;-83
2023/06/10 15:02:22;;;;;;;9.60;6.13;;;35.70;1.00;;;;;;5002801;28;20578;-82
2023/06/10 15:04:47;;;;;;;6.80;6.20;;;35.60;1.00;;;;;;5032445;28;20163;-84
2023/06/10 15:07:15;;;;;;;7.47;6.77;;;35.40;1.00;;;;;;5030577;28;20409;-84
2023/06/10 15:09:41;;;;;;;8.13;6.20;;;35.30;1.00;;;;;;5030387;28;20192;-83
2023/06/10 15:12:07;;;;;;;7.77;6.60;;;35.30;1.00;;;;;;5039416;28;20471;-83
2023/06/10 15:14:32;;;;;;;7.17;6.50;;;35.30;1.00;;;;;;5010760;28;20453;-84
2023/06/10 15:16:59;;;;;;;8.30;6.90;;;35.30;1.00;;;;;;5026628;28;20541;-83
2023/06/10 15:19:26;;;;;;;7.70;6.90;;;35.30;1.00;;;;;;5020561;28;20190;-83
2023/06/10 15:21:51;;;;;;;7.73;7.00;;;35.20;5.20;;;;;;5019763;28;20501;-83
2023/06/10 15:24:17;;;;;;;7.10;6.40;;;35.20;1.00;;;;;;5026842;28;20449;-84
2023/06/10 15:26:42;;;;;;;6.97;6.27;;;35.30;1.00;;;;;;5019587;28;20183;-83
2023/06/10 15:29:08;;;;;;;11.77;6.40;;;35.40;1.00;;;;;;5018412;28;20213;-83
2023/06/10 15:31:33;;;;;;;10.10;7.87;;;35.40;1.00;;;;;;5022639;28;20193;-83
2023/06/10 15:33:59;;;;;;;7.80;6.77;;;35.30;1.00;;;;;;5023086;28;20195;-84
2023/06/10 15:36:26;;;;;;;8.03;6.73;;;35.20;1.00;;;;;;5030656;28;20200;-83
2023/06/10 15:38:52;;;;;;;9.43;5.77;;;34.90;1.00;;;;;;5021030;28;20441;-83
2023/06/10 15:41:18;;;;;;;6.93;6.33;;;34.40;1.00;;;;;;5026131;28;20449;-83
2023/06/10 15:43:44;;;;;;;11.40;7.13;;;34.00;1.00;;;;;;5001663;28;20468;-83
2023/06/10 15:46:09;;;;;;;7.90;7.20;;;33.60;1.00;;;;;;5018788;28;20942;-84
2023/06/10 15:48:35;;;;;;;7.20;6.60;;;33.50;1.00;;;;;;5022004;28;20203;-84
2023/06/10 15:51:01;;;;;;;7.07;6.37;;;33.50;1.00;;;;;;5003265;28;20190;-83
2023/06/10 15:53:26;;;;;;;11.97;6.73;;;33.50;1.00;;;;;;5020547;28;20254;-84
2023/06/10 15:55:52;;;;;;;8.70;6.00;;;33.50;1.00;;;;;;5021091;28;20186;-84
2023/06/10 15:58:17;;;;;;;7.47;6.77;;;33.50;1.00;;;;;;5002078;28;20207;-84
2023/06/10 16:00:43;;;;;;;7.67;6.90;;;33.50;1.00;;;;;;5020799;28;20172;-83
2023/06/10 16:03:08;;;;;;;6.80;6.10;;;33.50;1.00;;;;;;5010909;28;20206;-84
2023/06/10 16:05:34;;;;;;;6.80;6.20;;;33.50;1.00;;;;;;5002526;28;20180;-84
2023/06/10 16:07:59;;;;;;;6.50;5.90;;;33.50;1.00;;;;;;5016371;28;20209;-85
2023/06/10 16:10:25;;;;;;;6.93;6.23;;;33.40;1.00;;;;;;5027573;28;20907;-84
2023/06/10 16:12:51;;;;;;;6.57;5.70;;;33.40;1.00;;;;;;5039684;28;20182;-85
2023/06/10 16:15:16;;;;;;;6.87;6.27;;;33.40;1.00;;;;;;5038853;28;20409;-84
2023/06/10 16:17:43;;;;;;;7.43;6.27;;;33.40;1.00;;;;;;5039325;28;20238;-83
2023/06/10 16:20:09;;;;;;;7.33;6.60;;;33.40;1.00;;;;;;5039520;28;20206;-85
2023/06/10 16:22:35;;;;;;;7.53;6.10;;;33.40;1.00;;;;;;5039318;28;20460;-85
2023/06/10 16:25:01;;;;;;;6.77;6.13;;;33.40;1.00;;;;;;5009783;28;20440;-82
2023/06/10 16:27:26;;;;;;;6.37;5.87;;;33.50;1.00;;;;;;5022864;28;20483;-84
2023/06/10 16:29:55;;;;;;;11.53;5.80;;;33.50;1.00;;;;;;5033657;28;20506;-84
2023/06/10 16:32:21;;;;;;;7.20;6.50;;;33.50;1.00;;;;;;5031207;28;20278;-84
2023/06/10 16:34:46;;;;;;;8.70;6.97;;;33.40;1.00;;;;;;5032655;28;20422;-84
2023/06/10 16:37:12;;;;;;;6.50;5.90;;;33.40;1.00;;;;;;5035540;28;20178;-84
2023/06/10 16:39:37;;;;;;;8.87;6.50;;;33.30;1.00;;;;;;5012271;28;20179;-84
2023/06/10 16:42:04;;;;;;;6.40;5.90;;;33.30;1.00;;;;;;5019193;28;20250;-84
2023/06/10 16:44:30;;;;;;;6.43;5.83;;;33.30;1.00;;;;;;5002316;28;20209;-84
2023/06/10 16:46:55;;;;;;;7.17;6.40;;;33.40;8.40;;;;;;5019902;28;20415;-84
2023/06/10 16:49:21;;;;;;;8.33;6.70;;;33.30;1.00;;;;;;5020375;28;20213;-84
2023/06/10 16:51:46;;;;;;;11.00;6.20;;;33.30;1.00;;;;;;5020226;28;20179;-85
2023/06/10 16:54:12;;;;;;;8.83;6.70;;;33.30;1.00;;;;;;5028554;28;20791;-85
2023/06/10 16:56:37;;;;;;;6.83;6.27;;;33.20;1.00;;;;;;5022666;28;20545;-84
2023/06/10 16:59:03;;;;;;;6.77;6.17;;;33.10;1.00;;;;;;5026278;28;20217;-84
2023/06/10 17:01:28;;;;;;;7.33;6.07;;;33.00;1.00;;;;;;5018211;28;20197;-85
2023/06/10 17:03:54;;;;;;;8.00;6.10;;;32.80;1.00;;;;;;5016122;28;20205;-85
2023/06/10 17:06:19;;;;;;;7.73;7.03;;;32.70;1.00;;;;;;5022053;28;20179;-85
2023/06/10 17:08:45;;;;;;;8.23;6.33;;;32.60;1.00;;;;;;5016513;28;20271;-84
2023/06/10 17:11:11;;;;;;;10.20;6.80;;;32.60;1.00;;;;;;5025210;28;20181;-84
2023/06/10 17:13:36;;;;;;;6.97;6.27;;;32.50;1.00;;;;;;5027758;28;20425;-84
2023/06/10 17:16:02;;;;;;;7.40;6.70;;;32.50;1.00;;;;;;5009419;28;20191;-84
2023/06/10 17:18:28;;;;;;;8.17;6.57;;;32.50;1.00;;;;;;5008692;28;20199;-84
2023/06/10 17:20:53;;;;;;;11.33;6.33;;;32.40;8.80;;;;;;5001254;28;20560;-82
2023/06/10 17:23:20;;;;;;;5.90;5.47;;;32.40;1.00;;;;;;5009702;28;20210;-85
2023/06/10 17:25:45;;;;;;;6.90;6.20;;;32.50;1.00;;;;;;5018588;28;20179;-84
2023/06/10 17:28:11;;;;;;;10.33;7.10;;;32.50;1.00;;;;;;5018293;28;20461;-85
2023/06/10 17:30:36;;;;;;;8.17;6.80;;;32.40;1.00;;;;;;5009797;28;20186;-84
2023/06/10 17:33:02;;;;;;;8.33;7.00;;;32.40;1.80;;;;;;5026410;28;20233;-85
2023/06/10 17:35:27;;;;;;;9.20;7.13;;;32.30;1.30;;;;;;5024404;28;20186;-85
2023/06/10 17:37:53;;;;;;;7.40;6.77;;;32.30;1.60;;;;;;5016155;28;20329;-83
2023/06/10 17:40:19;;;;;;;6.90;6.20;;;32.20;1.60;;;;;;5018827;28;20245;-84
2023/06/10 17:42:44;;;;;;;7.20;6.20;;;32.10;1.20;;;;;;5017455;28;20247;-83
2023/06/10 17:45:10;;;;;;;9.07;8.20;;;32.00;1.30;;;;;;5015325;28;20187;-83
2023/06/10 17:47:35;;;;;;;7.23;6.53;;;31.80;1.20;;;;;;5014898;28;20206;-84
2023/06/10 17:50:01;;;;;;;13.13;6.97;;;31.80;1.50;;;;;;4999147;28;20229;-84
2023/06/10 17:52:26;;;;;;;9.07;6.23;;;31.60;1.00;;;;;;5017248;28;20183;-84
2023/06/10 17:54:52;;;;;;;10.77;7.37;;;31.50;1.00;;;;;;5022889;28;20213;-83
2023/06/10 17:57:17;;;;;;;7.07;6.37;;;31.40;1.00;;;;;;5029438;28;20220;-84
2023/06/10 17:59:43;;;;;;;7.93;6.50;;;31.30;1.30;;;;;;5016152;28;20182;-83
2023/06/10 18:02:09;;;;;;;7.60;6.73;;;31.20;1.00;;;;;;5014863;28;20328;-83
2023/06/10 18:04:35;;;;;;;8.27;6.43;;;31.10;1.10;;;;;;5004555;28;20553;-84
2023/06/10 18:07:00;;;;;;;10.63;6.60;;;31.10;1.60;;;;;;4995191;28;20434;-83
2023/06/10 18:09:26;;;;;;;9.97;6.63;;;31.00;2.00;;;;;;4997406;28;20190;-83
2023/06/10 18:11:53;;;;;;;9.40;5.30;;;31.00;2.20;;;;;;5015237;28;20198;-84
2023/06/10 18:14:18;;;;;;;7.00;6.30;;;30.90;2.10;;;;;;5021232;28;20190;-83
2023/06/10 18:16:44;;;;;;;8.80;7.10;;;30.80;2.70;;;;;;5020142;28;20817;-84
2023/06/10 18:19:09;;;;;;;7.17;6.57;;;30.70;3.60;;;;;;5001792;28;20221;-83
2023/06/10 18:21:35;;;;;;;7.97;7.00;;;30.70;3.70;;;;;;4996665;28;20653;-84
2023/06/10 18:24:01;;;;;;;6.73;6.13;;;30.60;4.50;;;;;;5002173;28;20265;-84
2023/06/10 18:26:27;;;;;;;11.37;7.70;;;30.50;4.50;;;;;;5017922;28;20434;-84
2023/06/10 18:28:53;;;;;;;7.53;6.90;;;30.40;5.30;;;;;;5016203;28;20634;-83
2023/06/10 18:31:22;;;;;;;9.80;7.50;;;30.30;5.10;;;;;;5023524;28;20182;-83
2023/06/10 18:33:47;;;;;;;9.80;7.07;;;30.30;6.00;;;;;;5024657;28;20209;-83
2023/06/10 18:36:13;;;;;;;8.43;7.53;;;30.20;6.30;;;;;;5000626;28;20548;-84
2023/06/10 18:38:39;;;;;;;9.90;6.93;;;30.10;6.80;;;;;;5004920;28;20750;-83
2023/06/10 18:41:05;;;;;;;7.50;6.83;;;30.00;7.70;;;;;;5018409;28;20757;-83
2023/06/10 18:43:30;;;;;;;9.07;6.57;;;29.90;8.40;;;;;;5024061;28;20274;-81
2023/06/10 18:45:56;;;;;;;11.73;6.60;;;29.80;7.60;;;;;;5016194;28;20437;-83
2023/06/10 18:48:21;;;;;;;9.13;7.37;;;29.70;8.10;;;;;;5020008;28;20210;-83
2023/06/10 18:50:47;;;;;;;7.40;6.70;;;29.60;9.00;;;;;;5018794;28;20195;-82
2023/06/10 18:53:13;;;;;;;7.63;6.87;;;29.50;8.60;;;;;;5026958;28;20648;-83
2023/06/10 18:55:38;;;;;;;7.43;6.73;;;29.50;9.60;;;;;;5021341;28;20188;-83
2023/06/10 18:58:04;;;;;;;8.00;7.13;;;29.40;10.10;;;;;;4997667;28;20219;-86
2023/06/10 19:00:31;;;;;;;8.13;7.33;;;29.30;10.50;;;;;;5016244;28;20196;-84
2023/06/10 19:02:56;;;;;;;7.60;6.90;;;29.20;10.50;;;;;;5021737;28;20692;-85
2023/06/10 19:05:22;;;;;;;8.23;6.00;;;29.20;11.70;;;;;;5019699;28;20430;-83
2023/06/10 19:07:48;;;;;;;12.00;7.40;;;29.10;11.00;;;;;;5015702;28;20229;-82
2023/06/10 19:10:14;;;;;;;8.60;6.80;;;29.00;11.50;;;;;;4999329;28;20186;-83
2023/06/10 19:12:39;;;;;;;10.10;6.83;;;28.80;21.10;;;;;;5023293;28;20554;-83
2023/06/10 19:15:06;;;;;;;8.70;7.33;;;28.70;11.60;;;;;;5015572;28;20199;-85
2023/06/10 19:17:31;;;;;;;9.23;6.80;;;28.60;11.90;;;;;;5025573;28;20214;-81
2023/06/10 19:19:57;;;;;;;7.43;6.00;;;28.50;12.70;;;;;;5023953;28;20967;-82
2023/06/10 19:22:22;;;;;;;7.40;6.67;;;28.40;12.40;;;;;;5026327;28;20214;-83
2023/06/10 19:25:01;;;;;;;8.20;7.40;;;28.30;12.40;;;;;;5023490;28;20216;-85
2023/06/10 19:27:28;;;;;;;7.27;6.57;;;28.20;13.50;;;;;;5027300;28;20198;-83
2023/06/10 19:29:57;;;;;;;7.00;6.10;;;28.10;13.80;;;;;;5033360;28;20436;-84
2023/06/10 19:32:23;;;;;;;7.33;6.63;;;28.00;14.30;;;;;;5030144;28;20503;-83
2023/06/10 19:34:49;;;;;;;8.33;7.43;;;27.90;14.80;;;;;;5015732;28;20446;-84
2023/06/10 19:37:15;;;;;;;9.03;6.90;;;27.80;15.50;;;;;;5021121;28;20833;-85
2023/06/10 19:39:40;;;;;;;8.13;7.33;;;27.60;15.40;;;;;;5017388;28;20689;-85
2023/06/10 19:42:06;;;;;;;10.43;6.93;;;27.60;15.80;;;;;;5027263;28;20460;-83
2023/06/10 19:44:31;;;;;;;9.97;7.20;;;27.50;15.90;;;;;;5003051;28;20222;-83
2023/06/10 19:46:57;;;;;;;7.90;6.60;;;27.40;17.00;;;;;;5021824;28;20191;-85
2023/06/10 19:49:23;;;;;;;8.60;7.20;;;27.30;16.50;;;;;;5024183;28;20711;-84
2023/06/10 19:51:50;;;;;;;7.90;7.10;;;27.30;17.00;;;;;;5002659;28;20179;-83
2023/06/10 19:54:16;;;;;;;7.73;7.00;;;27.20;17.30;;;;;;5024249;28;20475;-83
2023/06/10 19:56:42;;;;;;;8.33;7.43;;;27.10;17.60;;;;;;5012715;28;20440;-83
2023/06/10 19:59:07;;;;;;;7.13;6.43;;;27.00;18.40;;;;;;5002152;28;20703;-83
2023/06/10 20:01:33;;;;;;;8.60;7.70;;;26.90;18.90;;;;;;5028213;28;20186;-83